Time;durP1;ratioP1;P1;durP2;ratioP2;P2;SDS_P1;SDS_P2;PMS_P1;PMS_P2;Temp;Humidity;BMP_temperature;BMP_pressure;BME280_temperature;BME280_humidity;BME280_pressure;Samples;Min_cycle;Max_cycle;Signal;HPM_P1;HPM_P2
2022/06/27 00:01:04;;;;;;;25.08;16.35;;;;;;;-148.88;100.00;75182.13;4995949;28;20034;-84
2022/06/27 00:03:30;;;;;;;25.92;16.52;;;;;;;-148.88;100.00;75178.06;4979655;28;20131;-84
2022/06/27 00:05:56;;;;;;;26.58;16.13;;;;;;;-148.88;100.00;75184.16;4979612;28;20022;-84
2022/06/27 00:08:21;;;;;;;27.75;16.80;;;;;;;-148.88;100.00;75174.00;4979592;28;20018;-84
2022/06/27 00:10:47;;;;;;;29.42;17.23;;;;;;;-148.88;100.00;75171.97;4996697;28;20034;-84
2022/06/27 00:13:12;;;;;;;33.00;17.23;;;;;;;-148.88;100.00;75174.00;4996902;28;20113;-84
2022/06/27 00:15:37;;;;;;;27.08;15.85;;;;;;;-148.88;100.00;75192.28;4996693;28;20026;-84
2022/06/27 00:18:03;;;;;;;25.63;16.52;;;;;;;-148.88;100.00;75196.34;4996673;28;20401;-84
2022/06/27 00:20:28;;;;;;;27.80;16.48;;;;;;;-148.88;100.00;75194.31;4996698;28;20018;-84
2022/06/27 00:22:54;;;;;;;26.60;17.13;;;;;;;-148.88;100.00;75196.34;4979039;28;20026;-84
2022/06/27 00:25:19;;;;;;;25.92;17.63;;;;;;;-148.88;100.00;75196.34;4996640;28;20386;-84
2022/06/27 00:27:44;;;;;;;28.58;18.10;;;;;;;-148.88;100.00;75192.28;4979272;28;20053;-84
2022/06/27 00:30:11;;;;;;;26.77;17.35;;;;;;;-148.88;100.00;75200.41;5001012;28;20022;-85
2022/06/27 00:32:36;;;;;;;25.50;16.08;;;;;;;-148.88;100.00;75196.34;5000364;28;20034;-84
2022/06/27 00:35:03;;;;;;;30.42;17.35;;;;;;;-148.88;100.00;75188.22;5022227;23;20089;-84
2022/06/27 00:37:28;;;;;;;26.42;15.90;;;;;;;-148.88;100.00;75188.22;4995903;28;20446;-83
2022/06/27 00:39:54;;;;;;;29.27;16.13;;;;;;;-148.88;100.00;75208.53;4995873;28;20112;-82
2022/06/27 00:42:21;;;;;;;25.08;16.65;;;;;;;-148.88;100.00;75220.72;4978907;28;20022;-83
2022/06/27 00:44:47;;;;;;;24.70;16.55;;;;;;;-148.88;100.00;75212.59;4977611;28;20026;-83
2022/06/27 00:47:13;;;;;;;27.10;17.00;;;;;;;-148.88;100.00;75214.63;4995528;28;20029;-83
2022/06/27 00:49:40;;;;;;;24.05;16.13;;;;;;;-148.88;100.00;75212.59;4995702;28;20032;-82
2022/06/27 00:52:08;;;;;;;30.27;18.85;;;;;;;-148.88;100.00;75202.44;4995506;28;20444;-83
2022/06/27 00:54:35;;;;;;;30.23;18.73;;;;;;;-148.88;100.00;75192.28;4994262;28;20022;-82
2022/06/27 00:57:00;;;;;;;30.83;19.60;;;;;;;-148.88;100.00;75192.28;4993687;28;20421;-82
2022/06/27 00:59:26;;;;;;;33.95;19.60;;;;;;;-148.88;100.00;75192.28;4993587;28;20519;-82
2022/06/27 01:01:51;;;;;;;30.42;19.92;;;;;;;-148.88;100.00;75188.22;4995184;28;20473;-81
2022/06/27 01:04:16;;;;;;;26.30;19.38;;;;;;;-148.88;100.00;75200.41;4995853;28;20109;-82
2022/06/27 01:06:42;;;;;;;28.67;18.83;;;;;;;-148.88;100.00;75196.34;4995177;28;20026;-82
2022/06/27 01:09:08;;;;;;;25.58;17.90;;;;;;;-148.88;100.00;75188.22;4993596;28;20488;-83
2022/06/27 01:11:34;;;;;;;24.55;18.05;;;;;;;-148.88;100.00;75188.22;4995269;28;20079;-83
2022/06/27 01:14:00;;;;;;;25.35;17.25;;;;;;;-148.88;100.00;75188.22;4993837;28;20370;-82
2022/06/27 01:16:26;;;;;;;27.58;17.65;;;;;;;-148.88;100.00;75192.28;4994732;28;20026;-82
2022/06/27 01:18:52;;;;;;;26.05;18.13;;;;;;;-148.88;100.00;75198.38;4995609;28;20033;-82
2022/06/27 01:21:23;;;;;;;27.75;19.00;;;;;;;-148.88;100.00;75188.22;4994917;28;20030;-83
2022/06/27 01:23:50;;;;;;;27.27;18.10;;;;;;;-148.88;100.00;75192.28;4997205;28;20022;-81
2022/06/27 01:26:17;;;;;;;28.67;17.52;;;;;;;-148.88;100.00;75190.25;4996396;28;20030;-82
2022/06/27 01:28:43;;;;;;;30.67;18.58;;;;;;;-148.88;100.00;75180.09;4995471;28;20501;-83
2022/06/27 01:31:13;;;;;;;30.25;18.67;;;;;;;-148.88;100.00;75186.19;4994401;28;20041;-84
2022/06/27 01:33:38;;;;;;;26.95;19.02;;;;;;;-148.88;100.00;75186.19;4992838;28;20079;-83
2022/06/27 01:38:53;;;;;;;25.92;17.95;;;;;;;-148.88;100.00;75182.13;4994925;28;20460;-83
2022/06/27 01:41:19;;;;;;;24.80;18.08;;;;;;;-148.88;100.00;75176.03;4993985;28;20022;-84
2022/06/27 01:43:45;;;;;;;24.77;17.05;;;;;;;-148.88;100.00;75180.09;4976709;28;20142;-84
2022/06/27 01:46:11;;;;;;;22.90;16.85;;;;;;;-148.88;100.00;75188.22;4994108;28;20045;-84
2022/06/27 01:48:38;;;;;;;23.50;16.15;;;;;;;-148.88;100.00;75194.31;4994035;28;20405;-83
2022/06/27 01:51:04;;;;;;;25.58;16.63;;;;;;;-148.88;100.00;75188.22;4994565;28;20036;-84
2022/06/27 01:53:29;;;;;;;22.95;16.65;;;;;;;-148.88;100.00;75190.25;4992974;28;20109;-83
2022/06/27 01:55:54;;;;;;;23.70;16.35;;;;;;;-148.88;100.00;75192.28;4992520;28;20084;-84
2022/06/27 01:58:21;;;;;;;26.90;16.95;;;;;;;-148.88;100.00;75182.13;4994428;28;20058;-83
2022/06/27 02:00:46;;;;;;;22.73;16.73;;;;;;;-148.88;100.00;75184.16;4994745;28;20026;-83
2022/06/27 02:03:12;;;;;;;24.42;17.35;;;;;;;-148.88;100.00;75184.16;4995210;28;20396;-83
2022/06/27 02:05:37;;;;;;;27.33;18.08;;;;;;;-148.88;100.00;75188.22;4993240;28;20134;-83
2022/06/27 02:08:03;;;;;;;23.17;15.65;;;;;;;-148.88;100.00;75180.09;4994448;28;20499;-83
2022/06/27 02:10:29;;;;;;;27.83;17.75;;;;;;;-148.88;100.00;75176.03;4994193;28;20027;-84
2022/06/27 02:12:55;;;;;;;28.83;17.73;;;;;;;-148.88;100.00;75180.09;4994228;28;20026;-83
2022/06/27 02:15:20;;;;;;;32.53;19.33;;;;;;;-148.88;100.00;75167.91;4992968;28;20073;-84
2022/06/27 02:17:46;;;;;;;26.33;18.42;;;;;;;-148.88;100.00;75171.97;4993508;28;20030;-83
2022/06/27 02:20:11;;;;;;;27.33;18.08;;;;;;;-148.88;100.00;75171.97;4993981;28;20053;-84
2022/06/27 02:22:36;;;;;;;25.52;17.73;;;;;;;-148.88;100.00;75180.09;4994543;28;20030;-84
2022/06/27 02:25:02;;;;;;;26.42;17.80;;;;;;;-148.88;100.00;75174.00;4993734;28;20489;-83
2022/06/27 02:27:30;;;;;;;27.75;19.20;;;;;;;-148.88;100.00;75171.97;4993758;28;20018;-83
2022/06/27 02:29:57;;;;;;;28.45;18.80;;;;;;;-148.88;100.00;75169.94;4992618;28;20053;-85
2022/06/27 02:32:23;;;;;;;34.80;20.27;;;;;;;-148.88;100.00;75161.81;4992051;28;20026;-84
2022/06/27 02:34:50;;;;;;;30.13;19.67;;;;;;;-148.88;100.00;75153.69;4992655;28;20504;-84
2022/06/27 02:37:17;;;;;;;27.60;18.85;;;;;;;-148.88;100.00;75157.75;4993125;28;20038;-84
2022/06/27 02:39:45;;;;;;;30.98;19.50;;;;;;;-148.88;100.00;75151.66;4992479;28;20057;-83
2022/06/27 02:42:12;;;;;;;34.50;18.83;;;;;;;-148.88;100.00;75151.66;4993212;28;20058;-85
2022/06/27 02:44:39;;;;;;;32.35;19.35;;;;;;;-148.88;100.00;75153.69;4992937;28;20065;-84
2022/06/27 02:47:06;;;;;;;28.90;19.15;;;;;;;-148.88;100.00;75171.97;4993747;28;20480;-83
2022/06/27 02:49:31;;;;;;;27.80;17.73;;;;;;;-148.88;100.00;75163.84;4993657;28;20108;-83
2022/06/27 02:52:08;;;;;;;27.02;18.25;;;;;;;-148.88;100.00;75163.84;5008102;28;20058;-84
2022/06/27 02:54:41;;;;;;;28.50;19.25;;;;;;;-148.88;100.00;75161.81;4993339;28;20030;-83
2022/06/27 02:57:36;;;;;;;28.90;18.73;;;;;;;-148.88;100.00;75163.84;4993504;28;20029;-83
2022/06/27 03:00:03;;;;;;;31.48;19.80;;;;;;;-148.88;100.00;75167.91;4988771;28;20399;-84
2022/06/27 03:02:30;;;;;;;32.25;20.48;;;;;;;-148.88;100.00;75155.72;4996776;28;20034;-84
2022/06/27 03:04:56;;;;;;;29.58;20.48;;;;;;;-148.88;100.00;75155.72;5013481;28;20022;-84
2022/06/27 03:07:22;;;;;;;34.58;21.42;;;;;;;-148.88;100.00;75171.97;4997702;28;20544;-83
2022/06/27 03:09:47;;;;;;;33.05;21.08;;;;;;;-148.88;100.00;75167.91;5003039;28;20068;-84
2022/06/27 03:12:13;;;;;;;36.75;22.67;;;;;;;-148.88;100.00;75163.84;5002943;28;20033;-83
2022/06/27 03:14:38;;;;;;;35.35;22.48;;;;;;;-148.88;100.00;75159.78;5003396;28;20034;-83
2022/06/27 03:17:04;;;;;;;34.97;22.45;;;;;;;-148.88;100.00;75151.66;5001282;28;20382;-84
2022/06/27 03:19:29;;;;;;;41.53;24.75;;;;;;;-148.88;100.00;75141.50;5002224;28;20037;-83
2022/06/27 03:21:54;;;;;;;46.97;25.45;;;;;;;-148.88;100.00;75139.47;5003518;28;20025;-83
2022/06/27 03:24:20;;;;;;;58.65;27.70;;;;;;;-148.88;100.00;75139.47;5003270;28;20377;-83
2022/06/27 03:26:45;;;;;;;44.22;26.25;;;;;;;-148.88;100.00;75131.34;5001566;28;20054;-84
2022/06/27 03:29:11;;;;;;;41.60;25.38;;;;;;;-148.88;100.00;75127.28;4999090;28;20058;-82
2022/06/27 03:31:36;;;;;;;45.38;26.02;;;;;;;-148.88;100.00;75119.16;4996464;28;20132;-83
2022/06/27 03:34:01;;;;;;;46.03;26.98;;;;;;;-148.88;100.00;75117.13;4996893;28;20334;-84
2022/06/27 03:36:27;;;;;;;50.05;27.25;;;;;;;-148.88;100.00;75115.09;5000646;28;20225;-84
2022/06/27 03:38:52;;;;;;;48.65;26.55;;;;;;;-148.88;100.00;75106.97;5000829;28;20082;-84
2022/06/27 03:41:17;;;;;;;55.70;28.92;;;;;;;-148.88;100.00;75094.81;4998913;28;20034;-84
2022/06/27 03:43:43;;;;;;;60.08;29.23;;;;;;;-148.88;100.00;75094.81;5001375;28;20027;-84
2022/06/27 03:46:08;;;;;;;59.75;29.98;;;;;;;-148.88;100.00;75078.56;5001126;28;20019;-84
2022/06/27 03:51:17;;;;;;;59.78;29.33;;;;;;;-148.88;100.00;75072.47;5005935;28;20049;-84
2022/06/27 03:53:42;;;;;;;51.95;29.42;;;;;;;-148.88;100.00;75060.28;5003266;28;20034;-83
2022/06/27 03:56:08;;;;;;;53.22;27.92;;;;;;;-148.88;100.00;75062.31;5003812;28;20038;-83
2022/06/27 03:58:33;;;;;;;52.78;29.45;;;;;;;-148.88;100.00;75058.25;5001826;28;20034;-84
2022/06/27 04:00:59;;;;;;;56.05;28.95;;;;;;;-148.88;100.00;75054.19;5002011;28;20056;-84
2022/06/27 04:03:24;;;;;;;61.50;29.67;;;;;;;-148.88;100.00;75052.16;5002963;28;20026;-84
2022/06/27 04:05:49;;;;;;;53.80;28.65;;;;;;;-148.88;100.00;75052.16;5003900;28;20029;-84
2022/06/27 04:08:15;;;;;;;55.42;29.65;;;;;;;-148.88;100.00;75060.28;5001023;28;20072;-84
2022/06/27 04:10:40;;;;;;;56.90;28.48;;;;;;;-148.88;100.00;75062.31;4996519;28;20029;-83
2022/06/27 04:13:06;;;;;;;54.35;29.77;;;;;;;-148.88;100.00;75066.38;5000520;28;20101;-84
2022/06/27 04:15:31;;;;;;;55.92;30.27;;;;;;;-148.88;100.00;75062.31;4999749;28;20022;-84
2022/06/27 04:17:56;;;;;;;49.45;27.38;;;;;;;-148.88;100.00;75060.28;4998502;28;19913;-84
2022/06/27 04:20:22;;;;;;;51.00;27.52;;;;;;;-148.88;100.00;75058.25;4997717;28;20058;-84
2022/06/27 04:22:47;;;;;;;59.47;28.70;;;;;;;-148.88;100.00;75048.09;4998159;28;20049;-85
2022/06/27 04:25:12;;;;;;;48.70;27.35;;;;;;;-148.88;100.00;75050.13;4999918;28;20050;-84
2022/06/27 04:27:39;;;;;;;46.03;26.40;;;;;;;-148.88;100.00;75044.03;4997811;28;20505;-84
2022/06/27 04:30:05;;;;;;;48.63;26.65;;;;;;;-148.88;100.00;75050.13;4996092;28;20120;-85
2022/06/27 04:32:30;;;;;;;56.42;27.60;;;;;;;-148.88;100.00;75052.16;5000180;28;20054;-83
2022/06/27 04:34:56;;;;;;;57.53;29.02;;;;;;;-148.88;100.00;75046.06;4997247;28;20030;-86
2022/06/27 04:37:21;;;;;;;48.08;25.98;;;;;;;-148.88;100.00;75044.03;4995500;28;20019;-84
2022/06/27 04:39:47;;;;;;;57.72;28.10;;;;;;;-148.88;100.00;75054.19;4995548;28;20476;-85
2022/06/27 04:42:13;;;;;;;44.92;25.23;;;;;;;-148.88;100.00;75044.03;5010724;28;20022;-84
2022/06/27 04:44:40;;;;;;;52.00;26.98;;;;;;;-148.88;100.00;75058.25;4995526;28;20546;-86
2022/06/27 04:47:07;;;;;;;49.05;27.67;;;;;;;-148.88;100.00;75062.31;4995289;28;20491;-85
2022/06/27 04:49:33;;;;;;;57.97;28.25;;;;;;;-148.88;100.00;75064.34;4993857;28;20041;-84
2022/06/27 04:51:58;;;;;;;63.65;27.63;;;;;;;-148.88;100.00;75070.44;4995001;28;20026;-84
2022/06/27 04:54:25;;;;;;;83.82;31.65;;;;;;;-148.88;100.00;75076.53;4995165;28;20030;-84
2022/06/27 04:56:50;;;;;;;61.70;30.50;;;;;;;-148.88;100.00;75074.50;4994920;28;20026;-84
2022/06/27 04:59:16;;;;;;;57.67;29.20;;;;;;;-148.88;100.00;75072.47;4993617;28;20034;-84
2022/06/27 05:01:41;;;;;;;61.53;29.30;;;;;;;-148.88;100.00;75086.69;4995440;28;20031;-84
2022/06/27 05:04:06;;;;;;;50.03;27.20;;;;;;;-148.88;100.00;75082.63;4995329;28;20101;-84
2022/06/27 05:06:32;;;;;;;55.33;27.30;;;;;;;-148.88;100.00;75082.63;4994767;28;20033;-85
2022/06/27 05:08:58;;;;;;;55.00;27.58;;;;;;;-148.88;100.00;75088.72;4995078;28;20026;-85
2022/06/27 05:11:23;;;;;;;59.45;29.42;;;;;;;-148.88;100.00;75094.81;4994946;28;20034;-84
2022/06/27 05:13:49;;;;;;;61.35;29.05;;;;;;;-148.88;100.00;75094.81;4993566;28;20022;-84
2022/06/27 05:16:16;;;;;;;61.55;30.23;;;;;;;-148.88;100.00;75098.84;4994855;28;20401;-84
2022/06/27 05:18:42;;;;;;;80.70;32.10;;;;;;;-148.88;100.00;75115.09;4995151;28;20030;-85
2022/06/27 05:21:08;;;;;;;65.72;31.65;;;;;;;-148.88;100.00;75113.06;4995173;28;20022;-84
2022/06/27 05:23:34;;;;;;;75.82;32.92;;;;;;;-148.88;100.00;75123.22;4995160;28;20086;-85
2022/06/27 05:26:01;;;;;;;69.20;30.42;;;;;;;-148.88;100.00;75123.22;4993062;28;20026;-85
2022/06/27 05:28:27;;;;;;;62.33;31.23;;;;;;;-148.88;100.00;75127.28;4994735;28;20419;-85
2022/06/27 05:30:52;;;;;;;93.78;34.08;;;;;;;-148.88;100.00;75143.53;4994297;28;20058;-84
2022/06/27 05:33:17;;;;;;;67.43;32.05;;;;;;;-148.88;100.00;75151.66;4992784;28;20030;-85
2022/06/27 05:35:43;;;;;;;61.45;31.10;;;;;;;-148.88;100.00;75155.72;4993792;28;20110;-85
2022/06/27 05:38:08;;;;;;;60.38;29.92;;;;;;;-148.88;100.00;75151.66;4994432;28;20477;-85
2022/06/27 05:40:33;;;;;;;66.28;31.10;;;;;;;-148.88;100.00;75147.59;4994158;28;20393;-85
2022/06/27 05:42:59;;;;;;;63.10;30.35;;;;;;;-148.88;100.00;75145.56;4993830;28;20026;-86
2022/06/27 05:45:24;;;;;;;68.82;30.98;;;;;;;-148.88;100.00;75149.63;4993802;28;20058;-85
2022/06/27 05:47:59;;;;;;;74.28;32.28;;;;;;;-148.88;100.00;75147.59;4993615;28;20049;-85
2022/06/27 05:50:24;;;;;;;81.90;34.13;;;;;;;-148.88;100.00;75155.72;4994574;28;20397;-85
2022/06/27 05:52:51;;;;;;;73.90;32.55;;;;;;;-148.88;100.00;75159.78;4992580;28;20028;-85
2022/06/27 05:55:17;;;;;;;74.68;33.58;;;;;;;-148.88;100.00;75161.81;4993581;28;20030;-86
2022/06/27 05:57:42;;;;;;;80.80;34.20;;;;;;;-148.88;100.00;75163.84;4993613;28;20022;-85
2022/06/27 06:00:08;;;;;;;69.68;32.53;;;;;;;-148.88;100.00;75137.44;4992309;28;20026;-85
2022/06/27 06:02:34;;;;;;;68.00;33.47;;;;;;;-148.88;100.00;75125.25;4992961;28;20026;-85
2022/06/27 06:05:00;;;;;;;73.78;32.90;;;;;;;-148.88;100.00;75104.94;4993890;28;20085;-84
2022/06/27 06:07:25;;;;;;;67.40;32.95;;;;;;;-148.88;100.00;75094.81;4993772;28;20457;-84
2022/06/27 06:09:51;;;;;;;77.22;32.95;;;;;;;-148.88;100.00;75111.03;4993824;28;20366;-85
2022/06/27 06:12:18;;;;;;;66.72;30.65;;;;;;;-148.88;100.00;75106.97;4993595;28;20026;-85
2022/06/27 06:14:46;;;;;;;66.53;31.17;;;;;;;-148.88;100.00;75098.84;4993749;28;20045;-85
2022/06/27 06:17:12;;;;;;;65.43;30.42;;;;;;;-148.88;100.00;75094.81;4993684;28;20022;-85
2022/06/27 06:19:38;;;;;;;66.55;29.92;;;;;;;-148.88;100.00;75090.72;4993529;28;20030;-85
2022/06/27 06:22:04;;;;;;;53.63;27.63;;;;;;;-148.88;100.00;75086.69;4993658;28;20053;-85
2022/06/27 06:24:29;;;;;;;54.53;28.67;;;;;;;-148.88;100.00;75096.81;4993738;28;20022;-85
2022/06/27 06:26:56;;;;;;;53.40;27.92;;;;;;;-148.88;100.00;75094.81;4993734;28;20022;-86
2022/06/27 06:29:22;;;;;;;53.67;28.38;;;;;;;-148.88;100.00;75102.91;4993811;28;20524;-86
2022/06/27 06:31:48;;;;;;;55.08;30.05;;;;;;;-148.88;100.00;75098.84;4993811;28;20037;-86
2022/06/27 06:34:14;;;;;;;70.53;25.90;;;;;;;-148.88;100.00;75106.97;4993793;28;20080;-87
2022/06/27 06:36:41;;;;;;;71.50;29.20;;;;;;;-148.88;100.00;75145.56;5039949;23;20048;-85
2022/06/27 06:39:09;;;;;;;44.70;26.15;;;;;;;-148.88;100.00;75137.44;5032670;28;20026;-84
2022/06/27 06:41:35;;;;;;;71.25;28.88;;;;;;;-148.88;100.00;75147.59;5048436;28;20120;-84
2022/06/27 06:44:05;;;;;;;66.10;29.20;;;;;;;-148.88;100.00;75139.47;5034060;28;20055;-84
2022/06/27 06:46:34;;;;;;;64.05;29.20;;;;;;;-148.88;100.00;75133.38;5037424;28;20055;-83
2022/06/27 06:49:06;;;;;;;54.47;29.77;;;;;;;-148.88;100.00;75119.16;5037420;28;20030;-83
2022/06/27 06:51:34;;;;;;;53.97;30.40;;;;;;;-148.88;100.00;75111.03;5036039;28;20056;-84
2022/06/27 06:54:07;;;;;;;53.90;27.88;;;;;;;-148.88;100.00;75135.41;5036702;28;20033;-85
2022/06/27 06:56:33;;;;;;;48.88;28.55;;;;;;;-148.88;100.00;75129.31;5037161;28;20040;-83
2022/06/27 06:59:03;;;;;;;82.63;29.45;;;;;;;-148.88;100.00;75143.53;5036158;28;20458;-83
2022/06/27 07:01:35;;;;;;;54.65;29.73;;;;;;;-148.88;100.00;75111.03;5035728;28;20039;-84
2022/06/27 07:04:02;;;;;;;51.90;28.83;;;;;;;-148.88;100.00;75127.28;5037026;28;20033;-83
2022/06/27 07:06:33;;;;;;;43.67;26.48;;;;;;;-148.88;100.00;75145.56;5035590;28;20028;-85
2022/06/27 07:09:15;;;;;;;53.67;27.88;;;;;;;-148.88;100.00;75159.78;5036211;28;20494;-85
2022/06/27 07:11:41;;;;;;;57.38;27.55;;;;;;;-148.88;100.00;75171.97;5036864;28;20136;-84
2022/06/27 07:14:11;;;;;;;61.22;25.98;;;;;;;-148.88;100.00;75167.91;5037515;28;20025;-84
2022/06/27 07:16:43;;;;;;;53.25;25.95;;;;;;;-148.88;100.00;75151.66;5054126;28;20049;-84
2022/06/27 07:19:10;;;;;;;44.00;26.30;;;;;;;-148.88;100.00;75151.66;5038713;28;20052;-84
2022/06/27 07:21:36;;;;;;;46.97;26.90;;;;;;;-148.88;100.00;75147.59;5037392;28;20026;-85
2022/06/27 07:24:03;;;;;;;54.15;26.52;;;;;;;-148.88;100.00;75171.97;5053892;28;20030;-85
2022/06/27 07:26:31;;;;;;;52.13;27.10;;;;;;;-148.88;100.00;75174.00;5038085;28;20028;-84
2022/06/27 07:29:04;;;;;;;46.38;25.85;;;;;;;-148.88;100.00;75180.09;5037851;28;20025;-84
2022/06/27 07:31:31;;;;;;;46.65;26.33;;;;;;;-148.88;100.00;75180.09;5038084;28;20021;-84
2022/06/27 07:34:01;;;;;;;48.20;24.80;;;;;;;-148.88;100.00;75194.31;5035861;28;20033;-84
2022/06/27 07:36:28;;;;;;;46.13;25.35;;;;;;;-148.88;100.00;75188.22;5035637;28;20025;-84
2022/06/27 07:38:54;;;;;;;48.17;26.17;;;;;;;-148.88;100.00;75176.03;5036967;28;20361;-83
2022/06/27 07:41:24;;;;;;;45.63;26.60;;;;;;;-148.88;100.00;75167.91;5035913;28;20511;-84
2022/06/27 07:44:00;;;;;;;51.17;26.75;;;;;;;-148.88;100.00;75171.97;5036330;28;20044;-84
2022/06/27 07:46:34;;;;;;;49.20;26.50;;;;;;;-148.88;100.00;75188.22;5036428;28;20017;-84
2022/06/27 07:49:03;;;;;;;52.47;25.75;;;;;;;-148.88;100.00;75186.19;5052488;28;20044;-84
2022/06/27 07:51:28;;;;;;;43.92;25.70;;;;;;;-148.88;100.00;75176.03;5035368;28;20602;-85
2022/06/27 07:53:54;;;;;;;51.75;26.55;;;;;;;-148.88;100.00;75178.06;5051379;28;20123;-84
2022/06/27 07:56:34;;;;;;;45.67;27.83;;;;;;;-148.88;100.00;75180.09;5035331;28;20041;-85
2022/06/27 07:59:05;;;;;;;47.65;30.17;;;;;;;-148.88;100.00;75200.41;5036693;28;20029;-84
2022/06/27 08:01:36;;;;;;;50.50;31.08;;;;;;;-148.88;100.00;75206.50;5052144;28;20028;-85
2022/06/27 08:04:05;;;;;;;66.20;32.17;;;;;;;-148.88;100.00;75204.47;5035658;28;20034;-85
2022/06/27 08:06:31;;;;;;;53.47;29.88;;;;;;;-148.88;100.00;75180.09;5035149;28;20026;-84
2022/06/27 08:09:07;;;;;;;60.17;32.67;;;;;;;-148.88;100.00;75178.06;5036162;28;20128;-85
2022/06/27 08:11:42;;;;;;;55.25;32.60;;;;;;;-148.88;100.00;75186.19;5034725;28;20029;-86
2022/06/27 08:14:12;;;;;;;58.78;33.35;;;;;;;-148.88;100.00;75167.91;5034261;28;20044;-85
2022/06/27 08:16:42;;;;;;;52.17;32.13;;;;;;;-148.88;100.00;75169.94;5034736;28;20024;-84
2022/06/27 08:19:15;;;;;;;55.38;32.47;;;;;;;-148.88;100.00;75169.94;5034798;28;20032;-85
2022/06/27 08:21:47;;;;;;;;;;;;;;;-148.88;100.00;75149.63;5035925;28;20025;-85
2022/06/27 08:24:16;;;;;;;55.15;31.98;;;;;;;-148.88;100.00;75147.59;5035167;28;20401;-85
2022/06/27 08:26:44;;;;;;;53.85;32.65;;;;;;;-148.88;100.00;75119.16;5035688;28;20109;-84
2022/06/27 08:32:26;;;;;;;54.72;30.75;;;;;;;-148.88;100.00;75076.53;4994526;28;20076;-85
2022/06/27 08:34:58;;;;;;;47.65;29.73;;;;;;;-148.88;100.00;75060.28;5050850;28;20447;-84
2022/06/27 08:37:39;;;;;;;45.63;30.02;;;;;;;-148.88;100.00;75039.97;5048259;28;20510;-85
2022/06/27 08:40:11;;;;;;;44.45;26.98;;;;;;;-148.88;100.00;75025.75;5033827;28;20029;-85
2022/06/27 08:42:44;;;;;;;41.70;26.35;;;;;;;-148.88;100.00;75017.63;5034498;28;20029;-85
2022/06/27 08:45:13;;;;;;;39.83;26.45;;;;;;;-148.88;100.00;75009.50;5051169;28;20435;-86
2022/06/27 08:47:38;;;;;;;38.65;25.75;;;;;;;-148.88;100.00;74968.88;5034039;28;20037;-85
2022/06/27 08:50:22;;;;;;;33.92;23.25;;;;;;;-148.88;100.00;74946.53;5034097;28;20025;-85
2022/06/27 08:52:48;;;;;;;;;;;;;;;-148.88;100.00;74960.75;5050763;28;20025;-86
2022/06/27 08:55:16;;;;;;;35.72;24.60;;;;;;;-148.88;100.00;74944.53;5033337;28;19919;-85
2022/06/27 08:57:49;;;;;;;34.63;24.73;;;;;;;-148.88;100.00;74936.41;5034693;28;20017;-85
2022/06/27 09:00:15;;;;;;;34.83;21.73;;;;;;;-148.88;100.00;74920.16;5034795;28;20384;-86
2022/06/27 09:02:51;;;;;;;34.75;23.77;;;;;;;-148.88;100.00;74924.22;5034819;28;20544;-86
2022/06/27 09:05:40;;;;;;;33.78;23.15;;;;;;;-148.88;100.00;74932.34;5033152;28;20124;-87
2022/06/27 09:08:07;;;;;;;29.48;21.73;;;;;;;-148.88;100.00;74942.47;5033953;28;20357;-86
2022/06/27 09:10:46;;;;;;;30.60;21.55;;;;;;;-148.88;100.00;74938.44;5033490;28;20474;-86
2022/06/27 09:13:26;;;;;;;30.20;21.77;;;;;;;-148.88;100.00;74954.66;5033665;28;20104;-86
2022/06/27 09:16:06;;;;;;;30.60;21.48;;;;;;;-148.88;100.00;74958.72;5033643;28;20053;-86
2022/06/27 09:18:37;;;;;;;32.50;22.88;;;;;;;-148.88;100.00;74964.81;5033496;28;20467;-85
2022/06/27 09:21:09;;;;;;;34.08;23.70;;;;;;;-148.88;100.00;74989.19;5032572;28;20037;-86
2022/06/27 09:23:47;;;;;;;38.40;23.97;;;;;;;-148.88;100.00;75009.50;5033275;28;20045;-86
2022/06/27 09:26:36;;;;;;;34.00;23.70;;;;;;;-148.88;100.00;75009.50;5049830;28;20017;-87
2022/06/27 09:29:23;;;;;;;38.70;25.45;;;;;;;-148.88;100.00;75037.94;5033213;28;20033;-86
2022/06/27 09:31:54;;;;;;;37.28;24.70;;;;;;;-148.88;100.00;75050.13;5033346;28;20539;-87
2022/06/27 09:34:31;;;;;;;36.92;24.50;;;;;;;-148.88;100.00;75044.03;5033546;28;20057;-90
2022/06/27 09:37:09;;;;;;;41.00;25.70;;;;;;;-148.88;100.00;75062.31;5032316;28;20111;-86
2022/06/27 09:39:49;;;;;;;35.47;25.52;;;;;;;-148.88;100.00;75058.25;5032115;28;20037;-86
2022/06/27 09:45:26;;;;;;;41.83;25.73;;;;;;;-148.88;100.00;75058.25;4992367;28;20035;-88
2022/06/27 09:48:18;;;;;;;38.38;26.23;;;;;;;-148.88;100.00;75046.06;4976147;28;20022;-86
2022/06/27 09:50:51;;;;;;;38.97;26.88;;;;;;;-148.88;100.00;75039.97;4991312;28;20035;-86
2022/06/27 09:53:32;;;;;;;36.30;24.17;;;;;;;-148.88;100.00;75042.00;4975647;28;20034;-87
2022/06/27 09:56:26;;;;;;;40.10;26.15;;;;;;;-148.88;100.00;75035.91;4995548;28;20047;-86
2022/06/27 09:59:01;;;;;;;51.83;30.00;;;;;;;-148.88;100.00;75037.94;5028387;28;20045;-87
2022/06/27 10:01:35;;;;;;;43.90;27.05;;;;;;;-148.88;100.00;75044.03;5032966;28;20099;-87
2022/06/27 10:04:35;;;;;;;45.60;26.35;;;;;;;-148.88;100.00;75017.63;5033086;28;20036;-87
2022/06/27 10:07:07;;;;;;;44.50;27.48;;;;;;;-148.88;100.00;75025.75;5032575;28;20369;-87
2022/06/27 10:09:51;;;;;;;45.28;27.98;;;;;;;-148.88;100.00;75033.88;5033077;28;20025;-88
2022/06/27 10:12:36;;;;;;;41.60;28.05;;;;;;;-148.88;100.00;75033.88;5033636;28;20032;-87
2022/06/27 10:15:25;;;;;;;42.53;27.17;;;;;;;-148.88;100.00;75025.75;5049700;28;20029;-88
2022/06/27 10:18:02;;;;;;;42.85;28.23;;;;;;;-148.88;100.00;75037.94;5032505;28;20032;-87
2022/06/27 10:20:47;;;;;;;42.83;28.20;;;;;;;-148.88;100.00;75050.13;5034414;28;20099;-88
2022/06/27 10:23:17;;;;;;;47.15;29.58;;;;;;;-148.88;100.00;75058.25;5048834;28;20391;-89
2022/06/27 10:25:49;;;;;;;44.45;28.45;;;;;;;-148.88;100.00;75058.25;5032640;28;20037;-89
2022/06/27 10:28:24;;;;;;;45.67;29.42;;;;;;;-148.88;100.00;75054.19;5034721;28;20028;-89
2022/06/27 10:30:53;;;;;;;43.03;27.80;;;;;;;-148.88;100.00;75062.31;5033143;28;20123;-87
2022/06/27 10:33:31;;;;;;;40.28;27.63;;;;;;;-148.88;100.00;75056.22;5032446;28;20032;-89
2022/06/27 10:36:39;;;;;;;44.13;27.00;;;;;;;-148.88;100.00;75074.50;5033357;28;20030;-89
2022/06/27 10:39:18;;;;;;;49.58;30.75;;;;;;;-148.88;100.00;75084.66;5031100;28;20092;-88
2022/06/27 10:41:49;;;;;;;49.17;30.02;;;;;;;-148.88;100.00;75082.63;5032670;28;20068;-88
2022/06/27 10:44:46;;;;;;;47.75;30.00;;;;;;;-148.88;100.00;75086.69;5032840;28;20044;-89
2022/06/27 10:47:43;;;;;;;47.63;29.08;;;;;;;-148.88;100.00;75078.56;5033206;28;20030;-89
2022/06/27 10:50:16;;;;;;;44.50;28.88;;;;;;;-148.88;100.00;75064.34;5032841;28;20032;-89
2022/06/27 10:52:48;;;;;;;46.58;28.95;;;;;;;-148.88;100.00;75068.41;5033855;28;20021;-89
2022/06/27 10:55:24;;;;;;;48.42;28.70;;;;;;;-148.88;100.00;75072.47;5034739;28;20510;-90
2022/06/27 10:57:52;;;;;;;47.80;29.67;;;;;;;-148.88;100.00;75068.41;5049957;28;20037;-88
2022/06/27 11:00:42;;;;;;;48.00;28.90;;;;;;;-148.88;100.00;75078.56;5035969;28;20030;-89
2022/06/27 11:03:39;;;;;;;54.65;29.30;;;;;;;-148.88;100.00;75088.72;5051324;28;20044;-89
2022/06/27 11:06:13;;;;;;;46.38;28.85;;;;;;;-148.88;100.00;75086.69;5033767;28;20055;-89
2022/06/27 11:08:47;;;;;;;54.03;31.08;;;;;;;-148.88;100.00;75090.72;5033046;28;20472;-88
2022/06/27 11:11:20;;;;;;;50.85;29.38;;;;;;;-148.88;100.00;75074.50;5032577;28;20025;-88
2022/06/27 11:14:04;;;;;;;50.58;29.60;;;;;;;-148.88;100.00;75082.63;5033672;28;20029;-89
2022/06/27 11:16:33;;;;;;;52.00;30.40;;;;;;;-148.88;100.00;75078.56;5033566;28;20444;-89